Terminal Aerodrome Forecast
Issued by NWS Corpus Christi, TX

Home | Current Version | Previous Version | Text Only | Print | Product List | Glossary On
Versions: 1 2 3 4 5 6 7 8 9 10 11 12 13 14 15 16 17
000
FTUS44 KCRP 301636 AAA
TAFCRP
TAF AMD
KCRP 301636Z 3017/0112 15014G25KT P6SM VCTS SCT025CB
      TEMPO 3017/3020 18038KT 2SM TSRA BR BKN028CB BKN060
     FM302000 14015G20KT P6SM SCT030 OVC120
     FM010100 15010KT P6SM FEW020 BKN120
     FM011000 15007KT P6SM VCSH SCT015=

USA.gov is the U.S. government's official web portal to all federal, state and local government web resources and services.